Time;durP1;ratioP1;P1;durP2;ratioP2;P2;SDS_P1;SDS_P2;PMS_P1;PMS_P2;Temp;Humidity;BMP_temperature;BMP_pressure;BME280_temperature;BME280_humidity;BME280_pressure;Samples;Min_cycle;Max_cycle;Signal;HPM_P1;HPM_P2
2022/05/04 00:00:13;;;;;;;18.23;8.00;;;10.00;99.90;;;;;;4199956;28;20166;-92
2022/05/04 00:02:14;;;;;;;15.57;7.40;;;10.00;99.90;;;;;;4200128;28;20742;-95
2022/05/04 00:04:14;;;;;;;14.60;7.43;;;10.10;99.90;;;;;;4216855;28;20224;-91
2022/05/04 00:06:15;;;;;;;15.20;7.53;;;10.10;99.90;;;;;;4199779;28;20210;-93
2022/05/04 00:08:16;;;;;;;21.00;8.27;;;10.10;99.90;;;;;;4199794;28;20273;-92
2022/05/04 00:10:17;;;;;;;18.17;8.00;;;10.20;99.90;;;;;;4199956;28;20167;-93
2022/05/04 00:12:18;;;;;;;17.87;8.10;;;10.10;99.90;;;;;;4199919;28;20209;-92
2022/05/04 00:14:19;;;;;;;19.13;8.20;;;10.10;99.90;;;;;;4200321;28;20174;-95
2022/05/04 00:16:19;;;;;;;19.90;7.83;;;10.10;99.90;;;;;;4199706;28;20183;-94
2022/05/04 00:18:20;;;;;;;24.33;8.20;;;10.10;99.90;;;;;;4216612;28;20194;-93
2022/05/04 00:20:21;;;;;;;18.98;7.45;;;10.10;99.90;;;;;;4199882;28;20197;-91
2022/05/04 00:22:23;;;;;;;18.20;7.67;;;10.00;99.90;;;;;;4199847;28;20181;-92
2022/05/04 00:24:23;;;;;;;18.67;7.40;;;10.00;99.90;;;;;;4199770;28;20174;-92
2022/05/04 00:26:24;;;;;;;15.63;6.83;;;10.10;99.90;;;;;;4199956;28;20279;-94
2022/05/04 00:28:25;;;;;;;17.73;7.53;;;10.10;99.90;;;;;;4216734;28;20263;-94
2022/05/04 00:30:26;;;;;;;23.27;8.20;;;10.20;99.90;;;;;;4216600;28;20166;-92
2022/05/04 00:32:27;;;;;;;21.03;8.07;;;10.10;99.90;;;;;;4216541;28;20278;-94
2022/05/04 00:34:27;;;;;;;23.17;7.43;;;9.90;99.90;;;;;;4216498;28;20175;-95
2022/05/04 00:36:28;;;;;;;18.73;8.17;;;9.80;99.90;;;;;;4216366;28;20174;-92
2022/05/04 00:38:29;;;;;;;20.00;7.10;;;9.80;99.90;;;;;;4216440;28;20214;-93
2022/05/04 00:40:30;;;;;;;17.50;7.83;;;9.80;99.90;;;;;;4199740;28;20209;-93
2022/05/04 00:42:30;;;;;;;21.03;8.13;;;9.90;99.90;;;;;;4216124;28;20185;-92
2022/05/04 00:44:31;;;;;;;19.27;7.70;;;9.90;99.90;;;;;;4199499;28;20163;-92
2022/05/04 00:46:32;;;;;;;14.80;7.63;;;9.80;99.90;;;;;;4199384;28;20698;-91
2022/05/04 00:48:34;;;;;;;18.93;7.10;;;9.80;99.90;;;;;;4198268;28;20232;-91
2022/05/04 00:50:35;;;;;;;19.67;8.23;;;9.90;99.90;;;;;;4199582;28;20535;-93
2022/05/04 00:52:37;;;;;;;17.20;7.97;;;9.90;99.90;;;;;;4199136;28;20174;-92
2022/05/04 00:54:38;;;;;;;19.00;8.30;;;9.80;99.90;;;;;;4199407;28;20202;-93
2022/05/04 00:56:39;;;;;;;16.30;8.23;;;9.70;99.90;;;;;;4199355;28;20729;-94
2022/05/04 00:58:55;;;;;;;18.20;7.93;;;9.60;99.90;;;;;;4215957;28;20187;-91
2022/05/04 01:00:57;;;;;;;16.23;7.60;;;9.60;99.90;;;;;;4199350;28;20183;-94
2022/05/04 01:02:58;;;;;;;18.97;8.53;;;9.50;99.90;;;;;;4199043;28;20277;-93
2022/05/04 01:04:58;;;;;;;15.50;7.80;;;9.40;99.90;;;;;;4215714;28;20166;-94
2022/05/04 01:07:00;;;;;;;19.83;7.93;;;9.40;99.90;;;;;;4198847;28;20694;-92
2022/05/04 01:09:00;;;;;;;18.37;8.27;;;9.60;99.90;;;;;;4198899;28;20221;-93
2022/05/04 01:11:01;;;;;;;16.73;7.53;;;9.50;99.90;;;;;;4199273;28;20178;-91
2022/05/04 01:13:02;;;;;;;17.67;7.70;;;9.30;99.90;;;;;;4198953;28;20163;-93
2022/05/04 01:15:03;;;;;;;20.13;8.30;;;9.10;99.90;;;;;;4199298;28;20174;-93
2022/05/04 01:17:04;;;;;;;17.83;7.97;;;9.30;99.90;;;;;;4215547;28;20174;-93
2022/05/04 01:19:06;;;;;;;19.47;7.90;;;9.20;99.90;;;;;;4215000;28;20251;-94
2022/05/04 01:21:07;;;;;;;20.70;8.27;;;9.10;99.90;;;;;;4215549;28;20261;-91
2022/05/04 01:23:08;;;;;;;21.23;8.57;;;9.10;99.90;;;;;;4198913;28;20182;-92
2022/05/04 01:25:10;;;;;;;18.83;8.87;;;9.30;99.90;;;;;;4198722;28;20283;-94
2022/05/04 01:27:11;;;;;;;23.73;8.43;;;9.30;99.90;;;;;;4198781;28;20245;-91
2022/05/04 01:29:14;;;;;;;25.10;8.60;;;9.50;99.90;;;;;;4198795;28;20221;-92
2022/05/04 01:31:15;;;;;;;16.03;8.00;;;9.40;99.90;;;;;;4198878;28;20197;-92
2022/05/04 01:33:15;;;;;;;19.17;8.07;;;9.50;99.90;;;;;;4198643;28;20198;-91
2022/05/04 01:35:16;;;;;;;26.43;8.83;;;9.50;99.90;;;;;;4215489;28;20174;-92
2022/05/04 01:37:17;;;;;;;17.40;8.37;;;9.50;99.90;;;;;;4198849;28;20214;-94
2022/05/04 01:39:17;;;;;;;19.63;8.23;;;9.50;99.90;;;;;;4198627;28;20195;-93
2022/05/04 01:43:38;;;;;;;17.67;7.90;;;9.40;99.90;;;;;;4215200;28;20257;-92
2022/05/04 01:45:39;;;;;;;17.83;8.60;;;9.30;99.90;;;;;;4198288;28;20540;-93
2022/05/04 01:47:40;;;;;;;21.77;9.63;;;9.10;99.90;;;;;;4198388;28;20263;-92
2022/05/04 01:49:41;;;;;;;17.27;8.60;;;8.90;99.90;;;;;;4198226;28;20234;-94
2022/05/04 01:51:41;;;;;;;20.40;9.03;;;8.90;99.90;;;;;;4198332;28;20179;-94
2022/05/04 01:53:44;;;;;;;15.23;8.67;;;9.00;99.90;;;;;;4198242;28;20162;-94
2022/05/04 01:55:45;;;;;;;21.13;8.90;;;9.10;99.90;;;;;;4215001;28;20650;-93
2022/05/04 01:57:46;;;;;;;18.13;8.70;;;9.10;99.90;;;;;;4198332;28;20171;-93
2022/05/04 01:59:47;;;;;;;18.53;9.03;;;9.20;99.90;;;;;;4214685;28;20204;-95
2022/05/04 02:01:49;;;;;;;20.07;8.70;;;9.30;99.90;;;;;;4198097;28;20167;-92
2022/05/04 02:03:49;;;;;;;23.03;9.73;;;9.20;99.90;;;;;;4198347;28;20868;-93
2022/05/04 02:05:50;;;;;;;16.67;8.50;;;9.20;99.90;;;;;;4198270;28;20300;-91
2022/05/04 02:07:51;;;;;;;23.17;9.87;;;9.30;99.90;;;;;;4214758;28;20174;-95
2022/05/04 02:09:52;;;;;;;25.10;9.80;;;9.30;99.90;;;;;;4197971;28;20190;-95
2022/05/04 02:11:53;;;;;;;22.23;9.30;;;9.30;99.90;;;;;;4198193;28;20178;-94
2022/05/04 02:13:54;;;;;;;24.83;10.30;;;9.30;99.90;;;;;;4197980;28;20650;-91
2022/05/04 02:15:54;;;;;;;19.23;9.33;;;9.30;99.90;;;;;;4198090;28;20167;-94
2022/05/04 02:17:55;;;;;;;20.40;9.33;;;9.20;99.90;;;;;;4197948;28;20163;-93
2022/05/04 02:19:56;;;;;;;18.57;9.07;;;9.30;99.90;;;;;;4214500;28;20174;-92
2022/05/04 02:21:57;;;;;;;24.07;9.10;;;9.20;99.90;;;;;;4198155;28;20261;-91
2022/05/04 02:23:57;;;;;;;20.13;9.27;;;9.10;99.90;;;;;;4214733;28;20162;-94
2022/05/04 02:25:58;;;;;;;27.00;10.03;;;9.10;99.90;;;;;;4197848;28;20199;-94
2022/05/04 02:27:59;;;;;;;20.53;9.50;;;9.00;99.90;;;;;;4198636;28;20175;-94
2022/05/04 02:29:59;;;;;;;28.60;9.03;;;8.90;99.90;;;;;;4197857;28;20178;-93
2022/05/04 02:32:00;;;;;;;21.83;9.13;;;8.70;99.90;;;;;;4214381;28;20166;-94
2022/05/04 02:34:01;;;;;;;21.93;9.37;;;8.70;99.90;;;;;;4197629;28;20167;-92
2022/05/04 02:38:21;;;;;;;25.57;10.20;;;8.80;99.90;;;;;;4214611;28;20197;-94
2022/05/04 02:40:24;;;;;;;22.57;9.57;;;8.80;99.90;;;;;;4214725;28;20178;-95
2022/05/04 02:42:24;;;;;;;18.80;8.90;;;8.90;99.90;;;;;;4214649;28;20166;-94
2022/05/04 02:44:25;;;;;;;19.13;8.60;;;8.90;99.90;;;;;;4214334;28;20615;-94
2022/05/04 02:46:28;;;;;;;18.73;8.77;;;8.80;99.90;;;;;;4197712;28;20744;-92
2022/05/04 02:48:29;;;;;;;16.80;8.63;;;8.70;99.90;;;;;;4197874;28;20190;-92
2022/05/04 02:50:30;;;;;;;18.93;8.90;;;8.60;99.90;;;;;;4197640;28;20167;-95
2022/05/04 02:52:30;;;;;;;17.73;9.47;;;8.50;99.90;;;;;;4214328;28;20252;-93
2022/05/04 02:54:32;;;;;;;23.43;9.77;;;8.50;99.90;;;;;;4197550;28;20189;-92
2022/05/04 02:56:33;;;;;;;23.57;8.77;;;8.40;99.90;;;;;;4197422;28;20183;-91
2022/05/04 02:58:34;;;;;;;28.63;10.20;;;8.50;99.90;;;;;;4197655;28;20187;-92
2022/05/04 03:00:34;;;;;;;20.80;9.67;;;8.40;99.90;;;;;;4197703;28;20193;-94
2022/05/04 03:02:35;;;;;;;23.67;9.20;;;8.40;99.90;;;;;;4214007;28;20174;-92
2022/05/04 03:04:38;;;;;;;23.07;9.67;;;8.40;99.90;;;;;;4197634;28;20225;-92
2022/05/04 03:06:40;;;;;;;19.80;9.30;;;8.40;99.90;;;;;;4197472;28;20620;-91
2022/05/04 03:08:40;;;;;;;18.73;9.60;;;8.40;99.90;;;;;;4214002;28;20190;-92
2022/05/04 03:13:08;;;;;;;27.83;10.33;;;8.40;99.90;;;;;;4194361;28;20209;-94
2022/05/04 03:15:09;;;;;;;22.27;9.93;;;8.40;99.90;;;;;;4217783;28;20673;-91
2022/05/04 03:17:10;;;;;;;22.47;9.97;;;8.40;99.90;;;;;;4217434;28;20177;-94
2022/05/04 03:19:11;;;;;;;24.83;10.07;;;8.20;99.90;;;;;;4217501;28;20190;-91
2022/05/04 03:21:11;;;;;;;23.73;10.33;;;8.20;99.90;;;;;;4200855;28;20167;-91
2022/05/04 03:23:12;;;;;;;24.50;10.07;;;8.30;99.90;;;;;;4217567;28;20166;-93
2022/05/04 03:25:13;;;;;;;17.87;9.10;;;8.30;99.90;;;;;;4200600;28;20643;-91
2022/05/04 03:27:14;;;;;;;18.60;9.33;;;8.30;99.90;;;;;;4200381;28;20206;-92
2022/05/04 03:29:15;;;;;;;20.67;9.67;;;8.30;99.90;;;;;;4200337;28;20625;-93
2022/05/04 03:31:15;;;;;;;23.43;9.27;;;8.20;99.90;;;;;;4217141;28;20178;-93
2022/05/04 03:33:16;;;;;;;20.57;9.87;;;8.20;99.90;;;;;;4200600;28;20180;-91
2022/05/04 03:35:17;;;;;;;21.13;9.47;;;8.20;99.90;;;;;;4217387;28;20235;-92
2022/05/04 03:37:18;;;;;;;19.23;9.03;;;8.10;99.90;;;;;;4200410;28;20237;-91
2022/05/04 03:39:19;;;;;;;24.40;9.77;;;8.10;99.90;;;;;;4200506;28;20240;-92
2022/05/04 03:41:21;;;;;;;22.70;9.83;;;8.10;99.90;;;;;;4217161;28;20178;-95
2022/05/04 03:43:21;;;;;;;22.77;10.07;;;8.10;99.90;;;;;;4217325;28;20181;-91
2022/05/04 03:45:22;;;;;;;18.27;9.93;;;8.10;99.90;;;;;;4217199;28;20209;-92
2022/05/04 03:47:23;;;;;;;21.07;10.17;;;8.00;99.90;;;;;;4200303;28;20249;-91
2022/05/04 03:49:24;;;;;;;19.67;9.33;;;8.00;99.90;;;;;;4217229;28;20297;-94
2022/05/04 03:51:25;;;;;;;24.13;9.37;;;8.00;99.90;;;;;;4217262;28;20178;-92
2022/05/04 03:53:26;;;;;;;26.30;10.73;;;7.70;99.90;;;;;;4200588;28;20175;-91
2022/05/04 03:55:27;;;;;;;20.63;9.90;;;7.60;99.90;;;;;;4200360;28;20255;-91
2022/05/04 03:57:28;;;;;;;20.87;10.10;;;7.60;99.90;;;;;;4200404;28;20577;-91
2022/05/04 03:59:29;;;;;;;21.77;10.57;;;7.80;99.90;;;;;;4200135;28;20197;-93
2022/05/04 04:01:30;;;;;;;19.33;9.90;;;7.80;99.90;;;;;;4200097;28;20639;-94
2022/05/04 04:03:32;;;;;;;19.70;10.20;;;7.90;99.90;;;;;;4200251;28;20175;-92
2022/05/04 04:05:32;;;;;;;19.00;10.47;;;8.00;99.90;;;;;;4216716;28;20162;-91
2022/05/04 04:07:33;;;;;;;27.87;10.63;;;8.00;99.90;;;;;;4216676;28;20177;-91
2022/05/04 04:09:34;;;;;;;22.93;10.20;;;8.00;99.90;;;;;;4216838;28;20193;-94
2022/05/04 04:11:35;;;;;;;23.60;10.20;;;8.00;99.90;;;;;;4200146;28;20265;-92
2022/05/04 04:13:36;;;;;;;22.23;9.77;;;7.90;99.90;;;;;;4216924;28;20178;-92
2022/05/04 04:15:37;;;;;;;21.30;10.27;;;7.60;99.90;;;;;;4200042;28;20167;-92
2022/05/04 04:17:38;;;;;;;23.63;10.70;;;7.60;99.90;;;;;;4199919;28;20273;-93
2022/05/04 04:19:38;;;;;;;26.67;10.67;;;7.60;99.90;;;;;;4199771;28;20198;-91
2022/05/04 04:21:52;;;;;;;24.93;10.63;;;7.70;99.90;;;;;;4216536;28;20178;-90
2022/05/04 04:23:53;;;;;;;19.37;9.90;;;7.80;99.90;;;;;;4199724;28;20166;-90
2022/05/04 04:25:53;;;;;;;20.30;10.10;;;7.80;99.90;;;;;;4216831;28;20293;-90
2022/05/04 04:27:54;;;;;;;30.47;11.37;;;7.80;99.90;;;;;;4199991;28;20178;-91
2022/05/04 04:29:55;;;;;;;31.00;11.67;;;7.60;99.90;;;;;;4199981;28;20175;-95
2022/05/04 04:31:56;;;;;;;25.87;10.90;;;7.60;99.90;;;;;;4199828;28;20312;-93
2022/05/04 04:33:57;;;;;;;26.13;11.20;;;7.80;99.90;;;;;;4216701;28;20162;-91
2022/05/04 04:35:59;;;;;;;25.73;10.97;;;7.70;99.90;;;;;;4199659;28;20163;-91
2022/05/04 04:38:01;;;;;;;23.47;10.43;;;7.60;99.90;;;;;;4200109;28;20189;-91
2022/05/04 04:40:02;;;;;;;26.23;11.17;;;7.80;99.90;;;;;;4199809;28;20167;-91
2022/05/04 04:42:03;;;;;;;25.30;11.20;;;7.80;99.90;;;;;;4199544;28;20178;-91
2022/05/04 04:44:04;;;;;;;29.03;11.50;;;7.80;99.90;;;;;;4199327;28;20167;-92
2022/05/04 04:46:05;;;;;;;22.00;10.43;;;7.90;99.90;;;;;;4199165;28;20214;-92
2022/05/04 04:48:06;;;;;;;24.63;10.60;;;8.00;99.90;;;;;;4199396;28;20173;-91
2022/05/04 04:50:08;;;;;;;24.73;11.37;;;8.00;99.90;;;;;;4216124;28;20178;-91
2022/05/04 04:52:08;;;;;;;27.93;11.37;;;8.00;99.90;;;;;;4199325;28;20277;-96
2022/05/04 04:54:09;;;;;;;28.60;11.47;;;8.10;99.90;;;;;;4199274;28;20183;-91
2022/05/04 04:56:10;;;;;;;25.23;11.57;;;8.00;99.90;;;;;;4199651;28;20179;-92
2022/05/04 04:58:11;;;;;;;20.73;9.97;;;8.10;99.90;;;;;;4199409;28;20174;-91
2022/05/04 05:00:13;;;;;;;24.67;11.23;;;8.10;99.90;;;;;;4199606;28;20665;-92
2022/05/04 05:02:14;;;;;;;27.37;11.73;;;8.00;99.90;;;;;;4199565;28;20265;-92
2022/05/04 05:04:14;;;;;;;25.50;12.03;;;8.10;99.90;;;;;;4199478;28;20289;-91
2022/05/04 05:06:18;;;;;;;20.33;10.03;;;8.10;99.90;;;;;;4199230;28;20211;-90
2022/05/04 05:08:19;;;;;;;22.57;10.47;;;8.10;99.90;;;;;;4199394;28;20206;-91
2022/05/04 05:10:20;;;;;;;19.80;9.93;;;8.20;99.90;;;;;;4199440;28;20178;-91
2022/05/04 05:12:24;;;;;;;23.17;10.67;;;8.30;99.90;;;;;;4199523;28;20179;-91
2022/05/04 05:16:44;;;;;;;27.03;12.43;;;8.20;99.90;;;;;;4215861;28;20227;-91
2022/05/04 05:18:45;;;;;;;29.03;12.57;;;8.00;99.90;;;;;;4215834;28;20201;-92
2022/05/04 05:20:46;;;;;;;31.13;12.53;;;7.90;99.90;;;;;;4199023;28;20201;-92
2022/05/04 05:22:46;;;;;;;27.97;11.40;;;7.80;99.90;;;;;;4199126;28;20237;-92
2022/05/04 05:24:47;;;;;;;30.37;11.63;;;7.60;99.90;;;;;;4215772;28;20182;-91
2022/05/04 05:26:48;;;;;;;34.93;13.27;;;7.40;99.90;;;;;;4215700;28;20217;-90
2022/05/04 05:28:48;;;;;;;34.53;14.20;;;7.20;99.90;;;;;;4198601;28;20281;-91
2022/05/04 05:30:49;;;;;;;28.03;12.87;;;7.20;99.90;;;;;;4198808;28;20170;-91
2022/05/04 05:32:50;;;;;;;23.77;11.67;;;7.30;99.90;;;;;;4198767;28;20269;-91
2022/05/04 05:34:51;;;;;;;26.97;13.30;;;7.40;99.90;;;;;;4198252;28;20283;-90
2022/05/04 05:36:52;;;;;;;37.30;14.30;;;7.30;99.90;;;;;;4198962;28;20675;-95
2022/05/04 05:38:52;;;;;;;29.23;13.77;;;7.40;99.90;;;;;;4215670;28;20248;-90
2022/05/04 05:40:53;;;;;;;37.77;14.83;;;7.40;99.90;;;;;;4199014;28;20202;-89
2022/05/04 05:42:54;;;;;;;30.43;12.67;;;7.50;99.90;;;;;;4198610;28;20243;-90
2022/05/04 05:44:55;;;;;;;36.37;13.57;;;7.50;99.90;;;;;;4215477;28;20170;-90
2022/05/04 05:46:56;;;;;;;37.90;13.53;;;7.60;99.90;;;;;;4215254;28;20240;-90
2022/05/04 05:48:56;;;;;;;28.80;14.00;;;7.60;99.90;;;;;;4198311;28;20213;-91
2022/05/04 05:50:57;;;;;;;36.73;14.37;;;7.60;99.90;;;;;;4198423;28;20183;-90
2022/05/04 05:52:58;;;;;;;34.23;14.43;;;7.70;99.90;;;;;;4215120;28;20170;-90
2022/05/04 05:54:58;;;;;;;40.17;13.37;;;7.70;99.90;;;;;;4198599;28;20179;-90
2022/05/04 05:56:59;;;;;;;34.07;15.03;;;8.00;99.90;;;;;;4198484;28;20167;-89
2022/05/04 05:59:00;;;;;;;31.90;14.67;;;8.00;99.90;;;;;;4198246;28;20203;-90
2022/05/04 06:01:01;;;;;;;30.70;13.40;;;8.00;99.90;;;;;;4215364;28;20634;-91
2022/05/04 06:03:02;;;;;;;43.10;15.70;;;8.10;99.90;;;;;;4209119;28;20230;-90
2022/05/04 06:05:03;;;;;;;38.07;14.57;;;8.10;99.90;;;;;;4207737;28;20174;-90
2022/05/04 06:07:05;;;;;;;37.57;15.43;;;8.10;99.90;;;;;;4218961;28;20203;-92
2022/05/04 06:09:05;;;;;;;31.30;14.43;;;8.30;99.90;;;;;;4208894;28;20194;-90
2022/05/04 06:11:06;;;;;;;39.93;15.10;;;8.50;99.90;;;;;;4214766;28;20312;-92
2022/05/04 06:13:07;;;;;;;35.50;15.37;;;8.80;99.90;;;;;;4215351;28;20174;-96
2022/05/04 06:15:08;;;;;;;31.33;14.73;;;9.30;99.90;;;;;;4198551;28;20186;-93
2022/05/04 06:17:09;;;;;;;35.13;14.77;;;9.60;99.90;;;;;;4198507;28;20619;-92
2022/05/04 06:19:10;;;;;;;32.77;13.47;;;10.10;99.90;;;;;;4215086;28;20335;-94
2022/05/04 06:21:11;;;;;;;30.80;14.17;;;10.50;99.90;;;;;;4214981;28;20263;-92
2022/05/04 06:23:11;;;;;;;32.47;14.03;;;10.70;99.90;;;;;;4198276;28;20294;-95
2022/05/04 06:25:12;;;;;;;24.10;12.20;;;11.20;99.90;;;;;;4214723;28;20709;-94
2022/05/04 06:27:13;;;;;;;30.33;11.90;;;11.60;99.90;;;;;;4214572;28;20254;-91
2022/05/04 06:29:14;;;;;;;24.20;11.50;;;11.90;99.90;;;;;;4197649;28;20178;-92
2022/05/04 06:35:53;;;;;;;23.98;11.27;;;12.40;99.90;;;;;;4214636;28;20182;-92
2022/05/04 06:37:53;;;;;;;27.83;12.82;;;12.30;99.90;;;;;;4214499;28;20170;-91
2022/05/04 06:39:54;;;;;;;22.60;10.45;;;13.10;99.90;;;;;;4214286;28;20244;-91
2022/05/04 06:41:55;;;;;;;22.43;10.83;;;13.70;99.90;;;;;;4214483;28;20177;-91
2022/05/04 06:43:56;;;;;;;25.57;11.70;;;13.60;99.90;;;;;;4197926;28;20237;-92
2022/05/04 06:45:57;;;;;;;21.30;10.53;;;13.60;99.90;;;;;;4197064;28;20198;-91
2022/05/04 06:47:57;;;;;;;21.70;11.67;;;13.40;99.90;;;;;;4197413;28;20182;-92
2022/05/04 06:49:59;;;;;;;26.00;11.73;;;13.10;99.90;;;;;;4197930;28;20166;-91
2022/05/04 06:52:00;;;;;;;27.57;11.73;;;13.10;99.90;;;;;;4197598;28;20174;-94
2022/05/04 06:54:01;;;;;;;20.33;10.57;;;12.90;99.90;;;;;;4214357;28;20168;-93
2022/05/04 06:56:02;;;;;;;22.70;10.53;;;12.80;99.90;;;;;;4214392;28;20265;-91
2022/05/04 06:58:03;;;;;;;18.80;9.53;;;12.50;99.90;;;;;;4197597;28;20177;-92
2022/05/04 07:00:05;;;;;;;21.43;9.50;;;12.40;99.90;;;;;;4197768;28;20265;-93
2022/05/04 07:02:06;;;;;;;23.67;9.93;;;12.40;99.90;;;;;;4214215;28;20177;-96
2022/05/04 07:04:07;;;;;;;18.63;9.30;;;12.60;99.90;;;;;;4214090;28;20217;-96
2022/05/04 07:06:08;;;;;;;15.43;8.67;;;12.50;99.90;;;;;;4214088;28;20201;-92
2022/05/04 07:08:08;;;;;;;20.43;9.20;;;12.40;99.90;;;;;;4214273;28;20181;-92
2022/05/04 07:10:09;;;;;;;18.83;8.37;;;12.70;99.90;;;;;;4214250;28;20166;-96
2022/05/04 07:12:10;;;;;;;16.42;7.32;;;13.60;99.90;;;;;;4197478;28;20183;-93
2022/05/04 07:14:12;;;;;;;20.08;8.77;;;14.70;99.90;;;;;;4214524;28;20627;-92
2022/05/04 07:16:14;;;;;;;18.00;8.10;;;16.00;99.90;;;;;;4214194;28;20193;-91
2022/05/04 07:18:15;;;;;;;20.60;8.13;;;16.90;99.90;;;;;;4197712;28;20190;-92
2022/05/04 07:20:16;;;;;;;17.05;7.85;;;17.40;99.90;;;;;;4197595;28;20171;-93
2022/05/04 07:22:17;;;;;;;16.95;7.88;;;17.70;99.90;;;;;;4214491;28;20170;-92
2022/05/04 07:24:18;;;;;;;18.70;8.80;;;19.30;99.90;;;;;;4197759;28;20562;-93
2022/05/04 07:26:18;;;;;;;19.88;8.30;;;19.60;99.90;;;;;;4214407;28;20252;-95
2022/05/04 07:28:19;;;;;;;17.67;7.78;;;19.00;99.90;;;;;;4197078;28;20237;-93
2022/05/04 07:30:20;;;;;;;19.27;7.75;;;19.00;99.90;;;;;;4197244;28;20654;-91
2022/05/04 07:32:21;;;;;;;15.52;8.07;;;19.50;99.90;;;;;;4197329;28;20203;-93
2022/05/04 07:34:22;;;;;;;16.33;7.40;;;20.60;99.90;;;;;;4214305;28;20162;-93
2022/05/04 07:36:23;;;;;;;16.27;7.43;;;21.00;99.90;;;;;;4197445;28;20182;-92
2022/05/04 07:38:23;;;;;;;19.77;7.65;;;20.80;99.90;;;;;;4197257;28;20198;-92
2022/05/04 07:42:44;;;;;;;19.70;7.90;;;21.50;99.90;;;;;;4213985;28;20200;-92
2022/05/04 07:44:45;;;;;;;16.33;7.70;;;22.90;99.90;;;;;;4197250;28;20187;-91
2022/05/04 07:46:46;;;;;;;16.75;7.75;;;22.90;99.90;;;;;;4214084;28;20206;-92
2022/05/04 07:48:47;;;;;;;18.83;7.80;;;22.30;99.90;;;;;;4197379;28;20282;-92
2022/05/04 07:50:47;;;;;;;22.35;8.18;;;23.20;99.90;;;;;;4214450;28;20166;-92
2022/05/04 07:52:48;;;;;;;14.70;7.78;;;23.20;99.90;;;;;;4197236;28;20202;-92
2022/05/04 07:54:49;;;;;;;18.00;8.27;;;22.00;99.90;;;;;;4197425;28;20171;-92
2022/05/04 07:56:52;;;;;;;20.80;8.30;;;22.50;99.90;;;;;;4214170;28;20217;-92
2022/05/04 07:58:53;;;;;;;17.75;8.02;;;23.40;99.90;;;;;;4216419;28;20193;-91
2022/05/04 08:05:33;;;;;;;20.67;9.40;;;21.90;99.90;;;;;;4216998;28;20201;-92
2022/05/04 08:07:33;;;;;;;17.45;8.55;;;22.50;99.90;;;;;;4217063;28;20260;-95
2022/05/04 08:09:36;;;;;;;19.23;9.85;;;21.50;99.90;;;;;;4200290;28;20190;-92
2022/05/04 08:11:37;;;;;;;26.88;12.00;;;21.50;99.90;;;;;;4200251;28;20202;-92
2022/05/04 08:13:38;;;;;;;22.70;10.20;;;21.80;99.90;;;;;;4217116;28;20175;-91
2022/05/04 08:15:38;;;;;;;22.55;11.52;;;21.80;99.90;;;;;;4217009;28;20171;-91
2022/05/04 08:17:39;;;;;;;26.00;11.57;;;21.70;99.90;;;;;;4200061;28;20225;-92
2022/05/04 08:19:40;;;;;;;23.73;10.65;;;21.30;99.90;;;;;;4217912;28;20194;-92
2022/05/04 08:21:41;;;;;;;17.83;9.82;;;20.80;99.90;;;;;;4216960;28;20205;-92
2022/05/04 08:23:41;;;;;;;19.85;10.57;;;20.80;99.90;;;;;;4200422;28;20171;-93
2022/05/04 08:25:43;;;;;;;18.90;11.10;;;21.90;99.90;;;;;;4200761;28;20183;-92
2022/05/04 08:27:46;;;;;;;22.52;12.52;;;22.60;99.90;;;;;;4200633;28;20233;-91
2022/05/04 08:29:47;;;;;;;22.95;12.35;;;23.30;99.90;;;;;;4199886;28;20191;-92
2022/05/04 08:31:48;;;;;;;24.40;11.70;;;22.60;99.90;;;;;;4199778;28;20163;-91
2022/05/04 08:33:49;;;;;;;29.15;13.77;;;21.00;99.90;;;;;;4218190;28;20738;-95
2022/05/04 08:35:50;;;;;;;28.05;13.30;;;20.60;99.90;;;;;;4207101;28;20194;-92
2022/05/04 08:37:51;;;;;;;26.55;13.70;;;20.20;99.90;;;;;;4211555;28;20167;-90
2022/05/04 08:39:52;;;;;;;27.08;13.85;;;21.20;99.90;;;;;;4217700;28;20189;-90
2022/05/04 08:41:54;;;;;;;21.63;12.82;;;20.80;99.90;;;;;;4216091;28;20175;-90
2022/05/04 08:43:57;;;;;;;23.40;12.40;;;20.80;99.90;;;;;;4199783;28;20171;-91
2022/05/04 08:46:00;;;;;;;23.20;11.80;;;22.00;99.90;;;;;;4216354;28;20171;-91
2022/05/04 08:48:03;;;;;;;27.70;12.05;;;22.20;99.90;;;;;;4216273;28;20231;-91
2022/05/04 08:50:09;;;;;;;24.27;11.75;;;21.80;99.90;;;;;;4199233;28;20176;-92
2022/05/04 08:52:11;;;;;;;21.25;11.93;;;21.20;99.90;;;;;;4199514;28;20167;-91
2022/05/04 08:54:13;;;;;;;21.38;11.25;;;21.60;99.90;;;;;;4216829;28;20174;-96
2022/05/04 08:56:14;;;;;;;24.23;11.45;;;21.90;99.90;;;;;;4199654;28;20171;-91
2022/05/04 08:58:15;;;;;;;23.92;12.73;;;22.80;99.90;;;;;;4199621;28;20254;-96
2022/05/04 09:00:16;;;;;;;23.88;12.52;;;23.00;99.90;;;;;;4200005;28;20166;-90
2022/05/04 09:02:17;;;;;;;19.27;12.15;;;22.20;99.90;;;;;;4199225;28;20236;-92
2022/05/04 09:04:18;;;;;;;24.88;12.05;;;21.40;99.90;;;;;;4199563;28;20159;-91
2022/05/04 09:06:34;;;;;;;21.23;11.48;;;21.20;99.90;;;;;;4199735;28;20214;-95
2022/05/04 09:08:54;;;;;;;20.42;11.32;;;21.40;99.90;;;;;;4200987;28;20697;-92
2022/05/04 09:10:54;;;;;;;20.75;10.23;;;22.00;99.90;;;;;;4200967;28;20179;-92
2022/05/04 09:12:55;;;;;;;20.35;10.32;;;22.10;99.90;;;;;;4200567;28;20258;-91
2022/05/04 09:14:56;;;;;;;25.13;11.35;;;22.50;99.90;;;;;;4201797;28;20217;-91
2022/05/04 09:16:57;;;;;;;18.88;11.15;;;21.10;99.90;;;;;;4201457;28;20221;-91
2022/05/04 09:19:04;;;;;;;20.70;11.38;;;20.70;99.90;;;;;;4200313;28;20549;-94
2022/05/04 09:21:05;;;;;;;20.48;11.15;;;21.60;99.90;;;;;;4199224;28;20205;-92
2022/05/04 09:23:08;;;;;;;23.80;11.45;;;22.60;99.90;;;;;;4216370;28;20174;-92
2022/05/04 09:25:16;;;;;;;24.55;11.88;;;22.20;99.90;;;;;;4216255;28;20614;-96
2022/05/04 09:27:17;;;;;;;19.50;10.82;;;21.60;99.90;;;;;;4216932;28;20201;-96
2022/05/04 09:29:18;;;;;;;19.92;11.27;;;21.40;99.90;;;;;;4198789;28;20183;-92
2022/05/04 09:31:24;;;;;;;22.17;10.63;;;21.60;99.90;;;;;;4198920;28;20183;-90
2022/05/04 09:33:32;;;;;;;21.67;11.20;;;21.80;99.90;;;;;;4215983;28;20190;-93
2022/05/04 09:35:32;;;;;;;26.25;12.05;;;21.40;99.90;;;;;;4215534;28;20676;-90
2022/05/04 09:44:54;;;;;;;22.75;10.32;;;19.40;99.90;;;;;;4215795;28;20177;-91
2022/05/04 09:46:55;;;;;;;21.60;9.65;;;19.60;99.90;;;;;;4215111;28;20289;-91
2022/05/04 09:48:57;;;;;;;20.17;10.38;;;19.50;99.90;;;;;;4215154;28;20536;-91
2022/05/04 09:51:08;;;;;;;21.63;11.63;;;19.30;99.90;;;;;;4198615;28;20167;-90
2022/05/04 09:53:09;;;;;;;28.27;11.80;;;19.30;99.90;;;;;;4198556;28;20180;-91
2022/05/04 09:55:14;;;;;;;22.02;11.55;;;19.10;99.90;;;;;;4198573;28;20251;-96
2022/05/04 09:57:15;;;;;;;27.20;12.05;;;19.40;99.90;;;;;;4198546;28;20659;-93
2022/05/04 09:59:22;;;;;;;20.63;10.57;;;19.60;99.90;;;;;;4216257;28;20214;-91
2022/05/04 10:01:22;;;;;;;23.83;10.13;;;19.30;99.90;;;;;;4215757;28;20176;-93
2022/05/04 10:03:23;;;;;;;20.95;9.77;;;19.00;99.90;;;;;;4198937;28;20262;-93
2022/05/04 10:05:24;;;;;;;21.92;10.75;;;19.70;99.90;;;;;;4199132;28;20198;-95
2022/05/04 10:07:27;;;;;;;19.25;9.65;;;20.30;99.90;;;;;;4216563;28;20209;-96
2022/05/04 10:09:27;;;;;;;25.83;10.63;;;19.80;99.90;;;;;;4215793;28;20288;-91
2022/05/04 10:11:30;;;;;;;29.40;10.35;;;20.30;99.90;;;;;;4200053;28;20501;-95
2022/05/04 10:13:31;;;;;;;20.00;10.95;;;19.50;99.90;;;;;;4215477;28;20185;-91
2022/05/04 10:15:34;;;;;;;24.70;11.27;;;19.10;99.90;;;;;;4216004;28;20170;-96
2022/05/04 10:17:52;;;;;;;30.48;11.90;;;19.60;99.90;;;;;;4215709;28;20261;-92
2022/05/04 10:20:06;;;;;;;22.55;10.43;;;19.20;99.90;;;;;;4200150;28;20565;-90
2022/05/04 10:22:12;;;;;;;23.50;10.85;;;19.40;99.90;;;;;;4214792;28;20660;-92
2022/05/04 10:24:13;;;;;;;27.15;12.40;;;19.00;99.90;;;;;;4215184;28;20172;-91
2022/05/04 10:26:14;;;;;;;29.05;12.98;;;19.00;99.90;;;;;;4215623;28;20205;-89
2022/05/04 10:28:16;;;;;;;29.95;12.35;;;18.40;99.90;;;;;;4215585;28;20190;-91
2022/05/04 10:30:33;;;;;;;24.23;11.68;;;17.90;99.90;;;;;;4215358;28;20196;-90
2022/05/04 10:32:35;;;;;;;23.52;11.48;;;17.60;99.90;;;;;;4215489;28;20174;-91
2022/05/04 10:34:44;;;;;;;26.23;11.50;;;17.50;99.90;;;;;;4215749;28;20573;-91
2022/05/04 10:36:47;;;;;;;27.35;12.10;;;17.60;99.90;;;;;;4215402;28;20157;-90
2022/05/04 10:38:55;;;;;;;25.27;11.75;;;17.50;99.90;;;;;;4215256;28;20194;-92
2022/05/04 10:41:02;;;;;;;17.02;10.30;;;17.30;99.90;;;;;;4198118;28;20249;-92
2022/05/04 10:43:16;;;;;;;23.58;10.93;;;17.50;99.90;;;;;;4198315;28;20742;-91
2022/05/04 10:45:17;;;;;;;19.30;10.07;;;18.00;99.90;;;;;;4198562;28;20619;-91
2022/05/04 10:47:19;;;;;;;26.00;11.10;;;18.40;99.90;;;;;;4197916;28;20206;-90
2022/05/04 10:49:34;;;;;;;18.98;10.48;;;18.70;99.90;;;;;;4200180;28;20183;-91
2022/05/04 10:51:38;;;;;;;23.63;11.60;;;18.60;99.90;;;;;;4205200;28;20171;-91